sensor_id;sensor_type;location;lat;lon;timestamp;P1;durP1;ratioP1;P2;durP2;ratioP2
16828;SDS011;8531;48.078;11.968;2023-04-03T00:01:13;5.90;;;5.30;;
16828;SDS011;8531;48.078;11.968;2023-04-03T00:03:39;5.97;;;5.37;;
16828;SDS011;8531;48.078;11.968;2023-04-03T00:06:06;6.63;;;5.77;;
16828;SDS011;8531;48.078;11.968;2023-04-03T00:08:33;5.90;;;5.07;;
16828;SDS011;8531;48.078;11.968;2023-04-03T00:11:00;6.77;;;5.50;;
16828;SDS011;8531;48.078;11.968;2023-04-03T00:13:26;6.90;;;6.20;;
16828;SDS011;8531;48.078;11.968;2023-04-03T00:15:52;6.33;;;5.63;;
16828;SDS011;8531;48.078;11.968;2023-04-03T00:18:18;6.20;;;5.60;;
16828;SDS011;8531;48.078;11.968;2023-04-03T00:20:44;6.03;;;5.43;;
16828;SDS011;8531;48.078;11.968;2023-04-03T00:23:10;6.90;;;6.13;;
16828;SDS011;8531;48.078;11.968;2023-04-03T00:25:36;6.00;;;5.50;;
16828;SDS011;8531;48.078;11.968;2023-04-03T00:28:02;6.40;;;5.80;;
16828;SDS011;8531;48.078;11.968;2023-04-03T00:30:28;6.70;;;5.73;;
16828;SDS011;8531;48.078;11.968;2023-04-03T00:32:55;6.73;;;6.03;;
16828;SDS011;8531;48.078;11.968;2023-04-03T00:35:20;6.13;;;5.47;;
16828;SDS011;8531;48.078;11.968;2023-04-03T00:37:47;6.27;;;5.67;;
16828;SDS011;8531;48.078;11.968;2023-04-03T00:40:15;7.00;;;5.40;;
16828;SDS011;8531;48.078;11.968;2023-04-03T00:42:42;6.17;;;5.33;;
16828;SDS011;8531;48.078;11.968;2023-04-03T00:47:52;5.00;;;4.50;;
16828;SDS011;8531;48.078;11.968;2023-04-03T00:50:19;6.50;;;4.33;;
16828;SDS011;8531;48.078;11.968;2023-04-03T00:52:45;4.93;;;4.43;;
16828;SDS011;8531;48.078;11.968;2023-04-03T00:55:13;6.17;;;4.57;;
16828;SDS011;8531;48.078;11.968;2023-04-03T00:57:40;7.83;;;5.47;;
16828;SDS011;8531;48.078;11.968;2023-04-03T01:00:08;5.17;;;4.40;;
16828;SDS011;8531;48.078;11.968;2023-04-03T01:02:37;6.00;;;5.30;;
16828;SDS011;8531;48.078;11.968;2023-04-03T01:05:06;6.17;;;5.27;;
16828;SDS011;8531;48.078;11.968;2023-04-03T01:07:32;6.50;;;5.80;;
16828;SDS011;8531;48.078;11.968;2023-04-03T01:10:02;6.57;;;5.60;;
16828;SDS011;8531;48.078;11.968;2023-04-03T01:15:00;5.73;;;5.13;;
16828;SDS011;8531;48.078;11.968;2023-04-03T01:17:46;4.90;;;4.40;;
16828;SDS011;8531;48.078;11.968;2023-04-03T01:25:35;6.03;;;5.37;;
16828;SDS011;8531;48.078;11.968;2023-04-03T01:28:25;6.70;;;5.73;;
16828;SDS011;8531;48.078;11.968;2023-04-03T01:33:24;5.97;;;5.47;;
16828;SDS011;8531;48.078;11.968;2023-04-03T01:35:50;6.70;;;5.67;;
16828;SDS011;8531;48.078;11.968;2023-04-03T01:38:15;5.30;;;4.80;;
16828;SDS011;8531;48.078;11.968;2023-04-03T01:40:41;5.73;;;5.17;;
16828;SDS011;8531;48.078;11.968;2023-04-03T01:43:07;5.47;;;4.97;;
16828;SDS011;8531;48.078;11.968;2023-04-03T01:45:33;5.53;;;5.03;;
16828;SDS011;8531;48.078;11.968;2023-04-03T01:47:59;5.30;;;4.80;;
16828;SDS011;8531;48.078;11.968;2023-04-03T01:50:24;5.47;;;4.97;;
16828;SDS011;8531;48.078;11.968;2023-04-03T01:52:50;5.10;;;4.60;;
16828;SDS011;8531;48.078;11.968;2023-04-03T01:55:16;5.50;;;5.00;;
16828;SDS011;8531;48.078;11.968;2023-04-03T01:57:41;5.27;;;4.50;;
16828;SDS011;8531;48.078;11.968;2023-04-03T02:00:07;6.10;;;5.50;;
16828;SDS011;8531;48.078;11.968;2023-04-03T02:02:34;5.40;;;4.90;;
16828;SDS011;8531;48.078;11.968;2023-04-03T02:05:00;5.83;;;5.23;;
16828;SDS011;8531;48.078;11.968;2023-04-03T02:07:25;5.67;;;5.17;;
16828;SDS011;8531;48.078;11.968;2023-04-03T02:09:52;4.37;;;4.03;;
16828;SDS011;8531;48.078;11.968;2023-04-03T02:12:17;6.63;;;4.83;;
16828;SDS011;8531;48.078;11.968;2023-04-03T02:14:43;5.20;;;4.63;;
16828;SDS011;8531;48.078;11.968;2023-04-03T02:17:09;5.00;;;4.27;;
16828;SDS011;8531;48.078;11.968;2023-04-03T02:19:35;5.23;;;4.43;;
16828;SDS011;8531;48.078;11.968;2023-04-03T02:22:01;6.27;;;4.60;;
16828;SDS011;8531;48.078;11.968;2023-04-03T02:24:27;5.37;;;4.87;;
16828;SDS011;8531;48.078;11.968;2023-04-03T02:26:53;7.37;;;4.60;;
16828;SDS011;8531;48.078;11.968;2023-04-03T02:29:19;4.53;;;3.87;;
16828;SDS011;8531;48.078;11.968;2023-04-03T02:31:45;4.57;;;4.17;;
16828;SDS011;8531;48.078;11.968;2023-04-03T02:34:11;5.17;;;4.30;;
16828;SDS011;8531;48.078;11.968;2023-04-03T02:36:36;5.80;;;4.40;;
16828;SDS011;8531;48.078;11.968;2023-04-03T02:39:02;5.10;;;4.43;;
16828;SDS011;8531;48.078;11.968;2023-04-03T02:41:28;5.37;;;4.07;;
16828;SDS011;8531;48.078;11.968;2023-04-03T02:43:59;4.33;;;3.93;;
16828;SDS011;8531;48.078;11.968;2023-04-03T02:46:26;5.70;;;4.10;;
16828;SDS011;8531;48.078;11.968;2023-04-03T02:48:51;6.10;;;4.20;;
16828;SDS011;8531;48.078;11.968;2023-04-03T02:51:17;4.43;;;3.87;;
16828;SDS011;8531;48.078;11.968;2023-04-03T02:53:43;5.70;;;4.53;;
16828;SDS011;8531;48.078;11.968;2023-04-03T02:56:08;7.50;;;4.83;;
16828;SDS011;8531;48.078;11.968;2023-04-03T02:58:34;4.77;;;4.20;;
16828;SDS011;8531;48.078;11.968;2023-04-03T03:01:00;4.10;;;3.70;;
16828;SDS011;8531;48.078;11.968;2023-04-03T03:03:26;5.87;;;4.90;;
16828;SDS011;8531;48.078;11.968;2023-04-03T03:06:09;5.07;;;4.57;;
16828;SDS011;8531;48.078;11.968;2023-04-03T03:08:36;5.43;;;4.63;;
16828;SDS011;8531;48.078;11.968;2023-04-03T03:11:03;4.73;;;4.33;;
16828;SDS011;8531;48.078;11.968;2023-04-03T03:13:29;4.07;;;3.53;;
16828;SDS011;8531;48.078;11.968;2023-04-03T03:15:55;6.13;;;4.73;;
16828;SDS011;8531;48.078;11.968;2023-04-03T03:18:21;5.93;;;4.70;;
16828;SDS011;8531;48.078;11.968;2023-04-03T03:20:50;4.20;;;3.73;;
16828;SDS011;8531;48.078;11.968;2023-04-03T03:23:23;4.77;;;4.03;;
16828;SDS011;8531;48.078;11.968;2023-04-03T03:25:54;5.67;;;4.53;;
16828;SDS011;8531;48.078;11.968;2023-04-03T03:28:23;4.83;;;4.33;;
16828;SDS011;8531;48.078;11.968;2023-04-03T03:30:49;6.47;;;4.57;;
16828;SDS011;8531;48.078;11.968;2023-04-03T03:33:15;5.43;;;3.87;;
16828;SDS011;8531;48.078;11.968;2023-04-03T03:35:42;5.70;;;4.67;;
16828;SDS011;8531;48.078;11.968;2023-04-03T03:38:08;4.80;;;3.90;;
16828;SDS011;8531;48.078;11.968;2023-04-03T03:40:34;5.47;;;4.63;;
16828;SDS011;8531;48.078;11.968;2023-04-03T03:43:00;5.03;;;3.60;;
16828;SDS011;8531;48.078;11.968;2023-04-03T03:45:26;4.90;;;4.33;;
16828;SDS011;8531;48.078;11.968;2023-04-03T03:47:52;5.97;;;4.70;;
16828;SDS011;8531;48.078;11.968;2023-04-03T03:50:18;5.10;;;4.10;;
16828;SDS011;8531;48.078;11.968;2023-04-03T03:52:43;4.70;;;4.20;;
16828;SDS011;8531;48.078;11.968;2023-04-03T03:55:09;4.23;;;3.83;;
16828;SDS011;8531;48.078;11.968;2023-04-03T03:57:35;5.30;;;4.53;;
16828;SDS011;8531;48.078;11.968;2023-04-03T04:00:01;4.53;;;3.67;;
16828;SDS011;8531;48.078;11.968;2023-04-03T04:02:28;5.63;;;4.00;;
16828;SDS011;8531;48.078;11.968;2023-04-03T04:04:54;4.40;;;3.77;;
16828;SDS011;8531;48.078;11.968;2023-04-03T04:07:19;5.33;;;4.20;;
16828;SDS011;8531;48.078;11.968;2023-04-03T04:09:45;5.37;;;3.67;;
16828;SDS011;8531;48.078;11.968;2023-04-03T04:12:11;4.73;;;4.33;;
16828;SDS011;8531;48.078;11.968;2023-04-03T04:14:36;4.43;;;3.80;;
16828;SDS011;8531;48.078;11.968;2023-04-03T04:17:02;3.80;;;3.50;;
16828;SDS011;8531;48.078;11.968;2023-04-03T04:19:28;5.57;;;4.00;;
16828;SDS011;8531;48.078;11.968;2023-04-03T04:21:54;4.97;;;3.27;;
16828;SDS011;8531;48.078;11.968;2023-04-03T04:24:19;4.43;;;3.20;;
16828;SDS011;8531;48.078;11.968;2023-04-03T04:26:47;5.07;;;3.93;;
16828;SDS011;8531;48.078;11.968;2023-04-03T04:29:13;3.83;;;3.30;;
16828;SDS011;8531;48.078;11.968;2023-04-03T04:31:39;5.17;;;3.80;;
16828;SDS011;8531;48.078;11.968;2023-04-03T04:34:05;4.87;;;3.47;;
16828;SDS011;8531;48.078;11.968;2023-04-03T04:36:31;3.87;;;3.47;;
16828;SDS011;8531;48.078;11.968;2023-04-03T04:38:56;4.10;;;3.20;;
16828;SDS011;8531;48.078;11.968;2023-04-03T04:41:23;3.63;;;3.33;;
16828;SDS011;8531;48.078;11.968;2023-04-03T04:43:49;3.67;;;3.23;;
16828;SDS011;8531;48.078;11.968;2023-04-03T04:46:15;3.87;;;2.90;;
16828;SDS011;8531;48.078;11.968;2023-04-03T04:48:41;4.47;;;4.00;;
16828;SDS011;8531;48.078;11.968;2023-04-03T04:51:07;4.70;;;3.97;;
16828;SDS011;8531;48.078;11.968;2023-04-03T04:53:33;4.63;;;3.50;;
16828;SDS011;8531;48.078;11.968;2023-04-03T04:55:59;5.43;;;3.73;;
16828;SDS011;8531;48.078;11.968;2023-04-03T04:58:25;4.20;;;3.80;;
16828;SDS011;8531;48.078;11.968;2023-04-03T05:03:33;4.13;;;3.73;;
16828;SDS011;8531;48.078;11.968;2023-04-03T05:05:59;4.27;;;3.87;;
16828;SDS011;8531;48.078;11.968;2023-04-03T05:08:25;3.90;;;3.50;;
16828;SDS011;8531;48.078;11.968;2023-04-03T05:10:51;4.17;;;3.63;;
16828;SDS011;8531;48.078;11.968;2023-04-03T05:13:18;3.83;;;3.20;;
16828;SDS011;8531;48.078;11.968;2023-04-03T05:15:44;5.17;;;4.67;;
16828;SDS011;8531;48.078;11.968;2023-04-03T05:18:10;3.63;;;3.33;;
16828;SDS011;8531;48.078;11.968;2023-04-03T05:20:36;5.77;;;3.23;;
16828;SDS011;8531;48.078;11.968;2023-04-03T05:23:02;4.07;;;3.40;;
16828;SDS011;8531;48.078;11.968;2023-04-03T05:25:28;4.20;;;3.50;;
16828;SDS011;8531;48.078;11.968;2023-04-03T05:27:54;5.63;;;3.17;;
16828;SDS011;8531;48.078;11.968;2023-04-03T05:30:20;5.70;;;3.93;;
16828;SDS011;8531;48.078;11.968;2023-04-03T05:32:46;5.73;;;3.53;;
16828;SDS011;8531;48.078;11.968;2023-04-03T05:35:12;5.53;;;3.80;;
16828;SDS011;8531;48.078;11.968;2023-04-03T05:37:37;8.40;;;4.17;;
16828;SDS011;8531;48.078;11.968;2023-04-03T05:40:04;5.03;;;3.20;;
16828;SDS011;8531;48.078;11.968;2023-04-03T05:42:30;6.53;;;3.93;;
16828;SDS011;8531;48.078;11.968;2023-04-03T05:44:56;9.00;;;3.40;;
16828;SDS011;8531;48.078;11.968;2023-04-03T05:47:22;6.40;;;3.00;;
16828;SDS011;8531;48.078;11.968;2023-04-03T05:49:47;4.87;;;3.13;;
16828;SDS011;8531;48.078;11.968;2023-04-03T05:54:47;15.87;;;3.40;;
16828;SDS011;8531;48.078;11.968;2023-04-03T05:57:13;7.53;;;3.20;;
16828;SDS011;8531;48.078;11.968;2023-04-03T05:59:41;5.97;;;3.07;;
16828;SDS011;8531;48.078;11.968;2023-04-03T06:02:09;6.73;;;5.20;;
16828;SDS011;8531;48.078;11.968;2023-04-03T06:04:36;15.90;;;3.60;;
16828;SDS011;8531;48.078;11.968;2023-04-03T06:07:02;3.83;;;3.00;;
16828;SDS011;8531;48.078;11.968;2023-04-03T06:09:27;4.37;;;2.77;;
16828;SDS011;8531;48.078;11.968;2023-04-03T06:11:54;5.07;;;2.77;;
16828;SDS011;8531;48.078;11.968;2023-04-03T06:14:20;9.47;;;4.20;;
16828;SDS011;8531;48.078;11.968;2023-04-03T06:16:45;12.70;;;3.60;;
16828;SDS011;8531;48.078;11.968;2023-04-03T06:19:11;7.17;;;3.90;;
16828;SDS011;8531;48.078;11.968;2023-04-03T06:21:38;15.60;;;3.93;;
16828;SDS011;8531;48.078;11.968;2023-04-03T06:24:04;3.67;;;2.57;;
16828;SDS011;8531;48.078;11.968;2023-04-03T06:26:31;10.07;;;3.17;;
16828;SDS011;8531;48.078;11.968;2023-04-03T06:28:58;4.03;;;2.77;;
16828;SDS011;8531;48.078;11.968;2023-04-03T06:31:24;4.27;;;2.80;;
16828;SDS011;8531;48.078;11.968;2023-04-03T06:33:50;4.00;;;2.70;;
16828;SDS011;8531;48.078;11.968;2023-04-03T06:36:17;6.03;;;2.77;;
16828;SDS011;8531;48.078;11.968;2023-04-03T06:38:45;4.10;;;2.90;;
16828;SDS011;8531;48.078;11.968;2023-04-03T06:41:11;3.87;;;2.40;;
16828;SDS011;8531;48.078;11.968;2023-04-03T06:43:37;4.40;;;2.93;;
16828;SDS011;8531;48.078;11.968;2023-04-03T06:46:03;4.03;;;3.07;;
16828;SDS011;8531;48.078;11.968;2023-04-03T06:48:29;4.67;;;2.63;;
16828;SDS011;8531;48.078;11.968;2023-04-03T06:50:54;4.00;;;2.53;;
16828;SDS011;8531;48.078;11.968;2023-04-03T06:53:21;4.97;;;3.27;;
16828;SDS011;8531;48.078;11.968;2023-04-03T06:55:47;3.37;;;2.60;;
16828;SDS011;8531;48.078;11.968;2023-04-03T06:58:12;4.17;;;3.00;;
16828;SDS011;8531;48.078;11.968;2023-04-03T07:00:40;6.77;;;3.80;;
16828;SDS011;8531;48.078;11.968;2023-04-03T07:03:07;13.77;;;6.57;;
16828;SDS011;8531;48.078;11.968;2023-04-03T07:05:33;5.40;;;4.23;;
16828;SDS011;8531;48.078;11.968;2023-04-03T07:07:59;3.10;;;2.80;;
16828;SDS011;8531;48.078;11.968;2023-04-03T07:10:24;4.20;;;2.30;;
16828;SDS011;8531;48.078;11.968;2023-04-03T07:12:50;2.87;;;2.30;;
16828;SDS011;8531;48.078;11.968;2023-04-03T07:15:16;4.23;;;2.70;;
16828;SDS011;8531;48.078;11.968;2023-04-03T07:17:42;6.57;;;3.40;;
16828;SDS011;8531;48.078;11.968;2023-04-03T07:20:08;3.90;;;2.88;;
16828;SDS011;8531;48.078;11.968;2023-04-03T07:22:34;3.27;;;2.80;;
16828;SDS011;8531;48.078;11.968;2023-04-03T07:24:59;7.13;;;2.70;;
16828;SDS011;8531;48.078;11.968;2023-04-03T07:27:25;5.23;;;2.97;;
16828;SDS011;8531;48.078;11.968;2023-04-03T07:29:51;4.33;;;2.23;;
16828;SDS011;8531;48.078;11.968;2023-04-03T07:32:17;4.55;;;2.70;;
16828;SDS011;8531;48.078;11.968;2023-04-03T07:34:43;3.30;;;2.53;;
16828;SDS011;8531;48.078;11.968;2023-04-03T07:37:09;4.77;;;3.40;;
16828;SDS011;8531;48.078;11.968;2023-04-03T07:39:35;9.45;;;2.53;;
16828;SDS011;8531;48.078;11.968;2023-04-03T07:42:01;3.23;;;2.40;;
16828;SDS011;8531;48.078;11.968;2023-04-03T07:44:27;4.37;;;2.50;;
16828;SDS011;8531;48.078;11.968;2023-04-03T07:46:54;3.50;;;2.83;;
16828;SDS011;8531;48.078;11.968;2023-04-03T07:49:22;5.93;;;2.78;;
16828;SDS011;8531;48.078;11.968;2023-04-03T07:51:49;6.17;;;2.60;;
16828;SDS011;8531;48.078;11.968;2023-04-03T07:54:15;8.80;;;3.03;;
16828;SDS011;8531;48.078;11.968;2023-04-03T07:56:41;3.20;;;2.90;;
16828;SDS011;8531;48.078;11.968;2023-04-03T07:59:08;4.77;;;3.13;;
16828;SDS011;8531;48.078;11.968;2023-04-03T08:01:34;3.93;;;2.50;;
16828;SDS011;8531;48.078;11.968;2023-04-03T08:04:00;3.97;;;2.87;;
16828;SDS011;8531;48.078;11.968;2023-04-03T08:06:26;3.60;;;2.90;;
16828;SDS011;8531;48.078;11.968;2023-04-03T08:08:52;3.97;;;2.60;;
16828;SDS011;8531;48.078;11.968;2023-04-03T08:11:17;3.60;;;2.80;;
16828;SDS011;8531;48.078;11.968;2023-04-03T08:13:44;7.53;;;3.07;;
16828;SDS011;8531;48.078;11.968;2023-04-03T08:16:10;4.00;;;3.00;;
16828;SDS011;8531;48.078;11.968;2023-04-03T08:18:38;4.47;;;3.03;;
16828;SDS011;8531;48.078;11.968;2023-04-03T08:21:07;4.40;;;2.63;;
16828;SDS011;8531;48.078;11.968;2023-04-03T08:23:34;4.23;;;3.50;;
16828;SDS011;8531;48.078;11.968;2023-04-03T08:26:05;6.43;;;3.60;;
16828;SDS011;8531;48.078;11.968;2023-04-03T08:28:31;10.27;;;3.93;;
16828;SDS011;8531;48.078;11.968;2023-04-03T08:31:01;2.88;;;2.55;;
16828;SDS011;8531;48.078;11.968;2023-04-03T08:33:30;4.90;;;3.17;;
16828;SDS011;8531;48.078;11.968;2023-04-03T08:35:55;6.07;;;2.78;;
16828;SDS011;8531;48.078;11.968;2023-04-03T08:38:21;4.70;;;2.95;;
16828;SDS011;8531;48.078;11.968;2023-04-03T08:40:47;3.78;;;3.40;;
16828;SDS011;8531;48.078;11.968;2023-04-03T08:46:06;4.53;;;3.42;;
16828;SDS011;8531;48.078;11.968;2023-04-03T08:48:41;4.07;;;3.40;;
16828;SDS011;8531;48.078;11.968;2023-04-03T08:51:13;3.70;;;3.00;;
16828;SDS011;8531;48.078;11.968;2023-04-03T08:53:43;4.20;;;3.13;;
16828;SDS011;8531;48.078;11.968;2023-04-03T08:56:14;6.47;;;3.43;;
16828;SDS011;8531;48.078;11.968;2023-04-03T08:58:51;5.35;;;3.60;;
16828;SDS011;8531;48.078;11.968;2023-04-03T09:01:23;6.97;;;3.33;;
16828;SDS011;8531;48.078;11.968;2023-04-03T09:03:49;5.60;;;3.30;;
16828;SDS011;8531;48.078;11.968;2023-04-03T09:06:23;3.83;;;3.03;;
16828;SDS011;8531;48.078;11.968;2023-04-03T09:14:36;4.13;;;3.42;;
16828;SDS011;8531;48.078;11.968;2023-04-03T09:17:14;3.75;;;2.45;;
16828;SDS011;8531;48.078;11.968;2023-04-03T09:19:49;4.38;;;2.70;;
16828;SDS011;8531;48.078;11.968;2023-04-03T09:22:23;4.50;;;2.90;;
16828;SDS011;8531;48.078;11.968;2023-04-03T09:27:41;5.68;;;3.10;;
16828;SDS011;8531;48.078;11.968;2023-04-03T09:30:16;3.58;;;2.70;;
16828;SDS011;8531;48.078;11.968;2023-04-03T09:32:47;6.18;;;2.53;;
16828;SDS011;8531;48.078;11.968;2023-04-03T09:35:24;3.92;;;2.70;;
16828;SDS011;8531;48.078;11.968;2023-04-03T09:37:58;4.93;;;2.83;;
16828;SDS011;8531;48.078;11.968;2023-04-03T09:40:37;2.67;;;2.25;;
16828;SDS011;8531;48.078;11.968;2023-04-03T09:45:42;2.75;;;2.13;;
16828;SDS011;8531;48.078;11.968;2023-04-03T09:55:54;3.35;;;2.50;;
16828;SDS011;8531;48.078;11.968;2023-04-03T09:58:27;3.40;;;2.50;;
16828;SDS011;8531;48.078;11.968;2023-04-03T10:00:58;1.90;;;1.70;;
16828;SDS011;8531;48.078;11.968;2023-04-03T10:03:29;2.20;;;1.77;;
16828;SDS011;8531;48.078;11.968;2023-04-03T10:05:57;2.38;;;2.05;;
16828;SDS011;8531;48.078;11.968;2023-04-03T10:08:25;3.03;;;2.22;;
16828;SDS011;8531;48.078;11.968;2023-04-03T10:11:08;2.75;;;1.80;;
16828;SDS011;8531;48.078;11.968;2023-04-03T10:13:49;3.55;;;2.10;;
16828;SDS011;8531;48.078;11.968;2023-04-03T10:16:21;5.40;;;1.90;;
16828;SDS011;8531;48.078;11.968;2023-04-03T10:24:23;4.40;;;2.40;;
16828;SDS011;8531;48.078;11.968;2023-04-03T10:37:58;3.83;;;3.30;;
16828;SDS011;8531;48.078;11.968;2023-04-03T10:40:37;5.20;;;3.65;;
16828;SDS011;8531;48.078;11.968;2023-04-03T10:43:25;5.03;;;3.83;;
16828;SDS011;8531;48.078;11.968;2023-04-03T10:46:32;4.83;;;3.23;;
16828;SDS011;8531;48.078;11.968;2023-04-03T10:49:21;5.22;;;3.80;;
16828;SDS011;8531;48.078;11.968;2023-04-03T10:52:22;5.57;;;4.77;;
16828;SDS011;8531;48.078;11.968;2023-04-03T10:57:32;4.50;;;3.60;;
16828;SDS011;8531;48.078;11.968;2023-04-03T11:00:02;5.17;;;3.87;;
16828;SDS011;8531;48.078;11.968;2023-04-03T11:02:38;5.37;;;4.00;;
16828;SDS011;8531;48.078;11.968;2023-04-03T11:08:01;5.50;;;3.00;;
16828;SDS011;8531;48.078;11.968;2023-04-03T11:10:37;5.90;;;3.57;;
16828;SDS011;8531;48.078;11.968;2023-04-03T11:13:16;5.40;;;3.90;;
16828;SDS011;8531;48.078;11.968;2023-04-03T11:15:48;5.83;;;4.53;;
16828;SDS011;8531;48.078;11.968;2023-04-03T11:18:15;5.27;;;3.43;;
16828;SDS011;8531;48.078;11.968;2023-04-03T11:20:53;6.15;;;4.38;;
16828;SDS011;8531;48.078;11.968;2023-04-03T11:23:26;5.55;;;4.00;;
16828;SDS011;8531;48.078;11.968;2023-04-03T11:26:00;4.20;;;3.20;;
16828;SDS011;8531;48.078;11.968;2023-04-03T11:28:46;3.87;;;3.17;;
16828;SDS011;8531;48.078;11.968;2023-04-03T11:36:59;3.90;;;3.17;;
16828;SDS011;8531;48.078;11.968;2023-04-03T11:39:33;2.73;;;2.47;;
16828;SDS011;8531;48.078;11.968;2023-04-03T11:44:51;2.80;;;2.47;;
16828;SDS011;8531;48.078;11.968;2023-04-03T11:53:15;4.70;;;2.90;;
16828;SDS011;8531;48.078;11.968;2023-04-03T11:55:53;4.27;;;2.57;;
16828;SDS011;8531;48.078;11.968;2023-04-03T12:00:59;3.40;;;3.03;;
16828;SDS011;8531;48.078;11.968;2023-04-03T12:03:33;3.90;;;2.40;;
16828;SDS011;8531;48.078;11.968;2023-04-03T12:11:31;4.13;;;2.42;;
16828;SDS011;8531;48.078;11.968;2023-04-03T12:19:00;4.25;;;1.80;;
16828;SDS011;8531;48.078;11.968;2023-04-03T12:40:16;3.80;;;1.65;;
16828;SDS011;8531;48.078;11.968;2023-04-03T12:43:54;9.50;;;1.95;;
16828;SDS011;8531;48.078;11.968;2023-04-03T12:46:02;3.05;;;1.77;;
16828;SDS011;8531;48.078;11.968;2023-04-03T12:48:39;2.65;;;1.83;;
16828;SDS011;8531;48.078;11.968;2023-04-03T12:51:33;3.55;;;2.03;;
16828;SDS011;8531;48.078;11.968;2023-04-03T12:54:13;5.25;;;1.70;;
16828;SDS011;8531;48.078;11.968;2023-04-03T12:57:13;5.70;;;1.80;;
16828;SDS011;8531;48.078;11.968;2023-04-03T12:59:46;2.95;;;1.40;;
16828;SDS011;8531;48.078;11.968;2023-04-03T13:02:20;1.77;;;1.58;;
16828;SDS011;8531;48.078;11.968;2023-04-03T13:04:55;2.63;;;1.55;;
16828;SDS011;8531;48.078;11.968;2023-04-03T13:07:28;3.25;;;1.55;;
16828;SDS011;8531;48.078;11.968;2023-04-03T13:12:33;11.05;;;1.83;;
16828;SDS011;8531;48.078;11.968;2023-04-03T13:15:11;4.55;;;1.23;;
16828;SDS011;8531;48.078;11.968;2023-04-03T13:17:43;4.05;;;1.75;;
16828;SDS011;8531;48.078;11.968;2023-04-03T13:20:14;5.80;;;1.45;;
16828;SDS011;8531;48.078;11.968;2023-04-03T13:22:51;8.68;;;2.10;;
16828;SDS011;8531;48.078;11.968;2023-04-03T13:25:31;3.45;;;2.13;;
16828;SDS011;8531;48.078;11.968;2023-04-03T13:27:59;3.33;;;1.40;;
16828;SDS011;8531;48.078;11.968;2023-04-03T13:30:31;4.38;;;1.40;;
16828;SDS011;8531;48.078;11.968;2023-04-03T13:32:59;4.72;;;1.42;;
16828;SDS011;8531;48.078;11.968;2023-04-03T13:37:54;1.88;;;1.40;;
16828;SDS011;8531;48.078;11.968;2023-04-03T13:40:21;3.38;;;1.23;;
16828;SDS011;8531;48.078;11.968;2023-04-03T13:42:48;4.32;;;1.10;;
16828;SDS011;8531;48.078;11.968;2023-04-03T13:45:53;3.03;;;1.20;;
16828;SDS011;8531;48.078;11.968;2023-04-03T13:48:25;11.50;;;2.08;;
16828;SDS011;8531;48.078;11.968;2023-04-03T13:53:29;5.97;;;1.27;;
16828;SDS011;8531;48.078;11.968;2023-04-03T13:58:34;2.83;;;1.10;;
16828;SDS011;8531;48.078;11.968;2023-04-03T14:01:07;2.33;;;1.25;;
16828;SDS011;8531;48.078;11.968;2023-04-03T14:03:56;2.75;;;1.15;;
16828;SDS011;8531;48.078;11.968;2023-04-03T14:06:26;2.35;;;1.27;;
16828;SDS011;8531;48.078;11.968;2023-04-03T14:08:52;2.65;;;1.23;;
16828;SDS011;8531;48.078;11.968;2023-04-03T14:11:22;2.15;;;1.08;;
16828;SDS011;8531;48.078;11.968;2023-04-03T14:13:52;2.05;;;1.48;;
16828;SDS011;8531;48.078;11.968;2023-04-03T14:16:21;2.80;;;1.70;;
16828;SDS011;8531;48.078;11.968;2023-04-03T14:18:50;3.28;;;1.20;;
16828;SDS011;8531;48.078;11.968;2023-04-03T14:21:17;20.38;;;2.50;;
16828;SDS011;8531;48.078;11.968;2023-04-03T14:23:44;4.28;;;1.00;;
16828;SDS011;8531;48.078;11.968;2023-04-03T14:26:14;1.95;;;1.30;;
16828;SDS011;8531;48.078;11.968;2023-04-03T14:28:47;4.03;;;0.95;;
16828;SDS011;8531;48.078;11.968;2023-04-03T14:31:15;1.92;;;1.25;;
16828;SDS011;8531;48.078;11.968;2023-04-03T14:33:42;3.38;;;1.67;;
16828;SDS011;8531;48.078;11.968;2023-04-03T14:38:44;2.65;;;1.17;;
16828;SDS011;8531;48.078;11.968;2023-04-03T14:41:16;2.75;;;1.55;;
16828;SDS011;8531;48.078;11.968;2023-04-03T14:43:44;3.45;;;1.05;;
16828;SDS011;8531;48.078;11.968;2023-04-03T14:46:15;2.42;;;1.10;;
16828;SDS011;8531;48.078;11.968;2023-04-03T14:49:14;1.98;;;1.02;;
16828;SDS011;8531;48.078;11.968;2023-04-03T14:51:51;1.35;;;0.77;;
16828;SDS011;8531;48.078;11.968;2023-04-03T14:54:18;1.25;;;0.95;;
16828;SDS011;8531;48.078;11.968;2023-04-03T14:56:50;1.52;;;0.90;;
16828;SDS011;8531;48.078;11.968;2023-04-03T14:59:17;1.50;;;0.85;;
16828;SDS011;8531;48.078;11.968;2023-04-03T15:01:45;3.30;;;1.00;;
16828;SDS011;8531;48.078;11.968;2023-04-03T15:04:13;2.97;;;1.35;;
16828;SDS011;8531;48.078;11.968;2023-04-03T15:06:40;2.80;;;0.95;;
16828;SDS011;8531;48.078;11.968;2023-04-03T15:09:26;3.15;;;1.10;;
16828;SDS011;8531;48.078;11.968;2023-04-03T15:11:54;2.97;;;1.65;;
16828;SDS011;8531;48.078;11.968;2023-04-03T15:14:20;1.92;;;0.98;;
16828;SDS011;8531;48.078;11.968;2023-04-03T15:16:46;1.27;;;0.85;;
16828;SDS011;8531;48.078;11.968;2023-04-03T15:19:13;2.22;;;0.80;;
16828;SDS011;8531;48.078;11.968;2023-04-03T15:21:39;3.55;;;1.20;;
16828;SDS011;8531;48.078;11.968;2023-04-03T15:24:05;1.08;;;0.80;;
16828;SDS011;8531;48.078;11.968;2023-04-03T15:26:31;1.27;;;1.00;;
16828;SDS011;8531;48.078;11.968;2023-04-03T15:28:57;1.65;;;0.90;;
16828;SDS011;8531;48.078;11.968;2023-04-03T15:31:23;1.65;;;0.88;;
16828;SDS011;8531;48.078;11.968;2023-04-03T15:33:49;4.25;;;1.17;;
16828;SDS011;8531;48.078;11.968;2023-04-03T15:36:15;4.75;;;0.82;;
16828;SDS011;8531;48.078;11.968;2023-04-03T15:38:40;2.05;;;0.82;;
16828;SDS011;8531;48.078;11.968;2023-04-03T15:41:06;1.83;;;1.10;;
16828;SDS011;8531;48.078;11.968;2023-04-03T15:43:32;4.22;;;1.13;;
16828;SDS011;8531;48.078;11.968;2023-04-03T15:45:59;4.47;;;1.45;;
16828;SDS011;8531;48.078;11.968;2023-04-03T15:48:26;4.95;;;1.63;;
16828;SDS011;8531;48.078;11.968;2023-04-03T15:50:53;2.33;;;0.93;;
16828;SDS011;8531;48.078;11.968;2023-04-03T15:53:19;1.70;;;0.98;;
16828;SDS011;8531;48.078;11.968;2023-04-03T15:55:45;2.50;;;0.98;;
16828;SDS011;8531;48.078;11.968;2023-04-03T15:58:11;1.33;;;0.88;;
16828;SDS011;8531;48.078;11.968;2023-04-03T16:00:36;2.97;;;1.13;;
16828;SDS011;8531;48.078;11.968;2023-04-03T16:03:08;2.58;;;1.10;;
16828;SDS011;8531;48.078;11.968;2023-04-03T16:05:36;3.40;;;1.42;;
16828;SDS011;8531;48.078;11.968;2023-04-03T16:08:04;2.88;;;1.10;;
16828;SDS011;8531;48.078;11.968;2023-04-03T16:10:32;1.52;;;1.10;;
16828;SDS011;8531;48.078;11.968;2023-04-03T16:12:59;2.42;;;1.23;;
16828;SDS011;8531;48.078;11.968;2023-04-03T16:15:25;2.83;;;1.55;;
16828;SDS011;8531;48.078;11.968;2023-04-03T16:17:51;5.90;;;2.42;;
16828;SDS011;8531;48.078;11.968;2023-04-03T16:20:18;3.03;;;1.80;;
16828;SDS011;8531;48.078;11.968;2023-04-03T16:22:44;4.30;;;1.58;;
16828;SDS011;8531;48.078;11.968;2023-04-03T16:25:10;4.20;;;2.35;;
16828;SDS011;8531;48.078;11.968;2023-04-03T16:27:37;4.72;;;1.70;;
16828;SDS011;8531;48.078;11.968;2023-04-03T16:30:03;1.73;;;1.42;;
16828;SDS011;8531;48.078;11.968;2023-04-03T16:32:30;2.95;;;1.23;;
16828;SDS011;8531;48.078;11.968;2023-04-03T16:34:57;3.30;;;0.85;;
16828;SDS011;8531;48.078;11.968;2023-04-03T16:37:23;1.27;;;0.77;;
16828;SDS011;8531;48.078;11.968;2023-04-03T16:39:49;1.98;;;1.10;;
16828;SDS011;8531;48.078;11.968;2023-04-03T16:42:15;2.53;;;1.00;;
16828;SDS011;8531;48.078;11.968;2023-04-03T16:44:40;3.55;;;1.30;;
16828;SDS011;8531;48.078;11.968;2023-04-03T16:47:06;1.85;;;1.23;;
16828;SDS011;8531;48.078;11.968;2023-04-03T16:49:32;4.93;;;2.10;;
16828;SDS011;8531;48.078;11.968;2023-04-03T16:52:01;3.38;;;1.17;;
16828;SDS011;8531;48.078;11.968;2023-04-03T16:54:29;3.10;;;1.48;;
16828;SDS011;8531;48.078;11.968;2023-04-03T16:56:55;3.35;;;1.20;;
16828;SDS011;8531;48.078;11.968;2023-04-03T16:59:21;1.67;;;1.20;;